createdAt,value
2022-10-17T00:00:03.215Z,1022.73
2022-10-17T00:05:02.794Z,1022.68
2022-10-17T00:10:02.553Z,1022.7
2022-10-17T00:15:03.575Z,1022.71
2022-10-17T00:20:03.089Z,1022.8
2022-10-17T00:25:02.704Z,1022.72
2022-10-17T00:30:03.582Z,1022.69
2022-10-17T00:35:03.118Z,1022.65
2022-10-17T00:40:02.569Z,1022.65
2022-10-17T00:45:03.056Z,1022.63
2022-10-17T00:55:03.655Z,1022.78
2022-10-17T01:00:03.443Z,1022.76
2022-10-17T01:05:03.052Z,1022.81
2022-10-17T01:10:02.774Z,1022.85
2022-10-17T01:20:02.585Z,1022.88
2022-10-17T01:25:02.254Z,1022.9
2022-10-17T01:30:02.926Z,1022.88
2022-10-17T01:35:02.530Z,1022.84
2022-10-17T01:40:02.199Z,1022.64
2022-10-17T01:45:03.316Z,1022.52
2022-10-17T01:50:02.463Z,1022.44
2022-10-17T01:55:03.889Z,1022.5
2022-10-17T02:00:02.988Z,1022.5
2022-10-17T02:05:02.593Z,1022.51
2022-10-17T02:10:02.235Z,1022.38
2022-10-17T02:15:03.016Z,1022.46
2022-10-17T02:20:02.654Z,1022.52
2022-10-17T02:25:02.289Z,1022.51
2022-10-17T02:30:03.067Z,1022.44
2022-10-17T02:35:03.066Z,1022.38
2022-10-17T02:40:02.558Z,1022.28
2022-10-17T02:45:03.236Z,1022.37
2022-10-17T02:50:02.798Z,1022.37
2022-10-17T02:55:03.946Z,1022.18
2022-10-17T03:00:03.425Z,1022.21
2022-10-17T03:05:03.048Z,1022.12
2022-10-17T03:10:02.709Z,1022.24
2022-10-17T03:15:03.342Z,1022.22
2022-10-17T03:20:03.039Z,1022.26
2022-10-17T03:25:02.651Z,1022.22
2022-10-17T03:30:03.367Z,1022.28
2022-10-17T03:35:02.988Z,1022.26
2022-10-17T03:40:02.481Z,1022.28
2022-10-17T03:45:03.154Z,1022.27
2022-10-17T03:50:02.739Z,1022.3
2022-10-17T03:55:04.577Z,1022.27
2022-10-17T04:00:03.005Z,1022.37
2022-10-17T04:05:02.629Z,1022.37
2022-10-17T04:10:02.649Z,1022.46
2022-10-17T04:15:03.319Z,1022.43
2022-10-17T04:20:02.981Z,1022.42
2022-10-17T04:25:02.700Z,1022.4
2022-10-17T04:30:03.070Z,1022.39
2022-10-17T04:35:02.680Z,1022.45
2022-10-17T04:40:02.326Z,1022.56
2022-10-17T04:45:03.064Z,1022.57
2022-10-17T04:50:02.655Z,1022.6
2022-10-17T04:55:03.962Z,1022.67
2022-10-17T05:00:03.454Z,1022.54
2022-10-17T05:05:02.599Z,1022.56
2022-10-17T05:10:02.332Z,1022.52
2022-10-17T05:15:03.005Z,1022.66
2022-10-17T05:20:02.662Z,1022.58
2022-10-17T05:25:02.287Z,1022.56
2022-10-17T05:30:03.031Z,1022.67
2022-10-17T05:35:02.641Z,1022.68
2022-10-17T05:40:02.285Z,1022.68
2022-10-17T05:45:03.022Z,1022.8
2022-10-17T05:50:02.615Z,1022.78
2022-10-17T05:55:03.691Z,1022.77
2022-10-17T06:00:03.071Z,1022.89
2022-10-17T06:05:03.062Z,1022.94
2022-10-17T06:10:02.783Z,1022.93
2022-10-17T06:15:02.441Z,1022.94
2022-10-17T06:20:03.171Z,1023.02
2022-10-17T06:25:03.233Z,1023.06
2022-10-17T06:30:02.830Z,1023.17
2022-10-17T06:35:03.439Z,1023.15
2022-10-17T06:40:03.205Z,1023.22
2022-10-17T06:45:02.939Z,1023.25
2022-10-17T06:50:02.596Z,1023.2
2022-10-17T07:00:02.890Z,1023.46
2022-10-17T07:05:02.565Z,1023.5
2022-10-17T07:10:03.229Z,1023.47
2022-10-17T07:15:02.788Z,1023.61
2022-10-17T07:20:02.370Z,1023.66
2022-10-17T07:25:03.001Z,1023.58
2022-10-17T07:30:02.727Z,1023.63
2022-10-17T07:35:02.380Z,1023.62
2022-10-17T07:40:03.031Z,1023.75
2022-10-17T07:45:02.779Z,1023.78
2022-10-17T07:50:02.395Z,1023.78
2022-10-17T07:55:04.406Z,1023.77
2022-10-17T08:00:02.711Z,1023.67
2022-10-17T08:05:02.360Z,1023.69
2022-10-17T08:10:03.072Z,1023.67
2022-10-17T08:15:02.784Z,1023.58
2022-10-17T08:20:02.526Z,1023.57
2022-10-17T08:25:03.499Z,1023.51
2022-10-17T08:30:02.879Z,1023.55
2022-10-17T08:35:02.522Z,1023.67
2022-10-17T08:40:03.184Z,1023.58
2022-10-17T08:45:02.951Z,1023.53
2022-10-17T08:50:02.646Z,1023.52
2022-10-17T08:55:03.550Z,1023.51
2022-10-17T09:00:03.468Z,1023.54
2022-10-17T09:05:02.638Z,1023.43
2022-10-17T09:10:02.370Z,1023.43
2022-10-17T09:15:03.038Z,1023.38
2022-10-17T09:20:02.737Z,1023.43
2022-10-17T09:25:02.364Z,1023.45
2022-10-17T09:35:02.753Z,1023.42
2022-10-17T09:40:02.405Z,1023.29
2022-10-17T10:15:02.565Z,1023.22
2022-10-17T10:20:02.264Z,1023.13
2022-10-17T10:25:03.317Z,1023.13
2022-10-17T10:55:04.659Z,1023.09
2022-10-17T11:00:02.674Z,1023.12
2022-10-17T11:10:03.246Z,1023.05
2022-10-17T11:15:02.982Z,1022.97
2022-10-17T11:20:02.682Z,1023
2022-10-17T11:25:03.330Z,1022.86
2022-10-17T11:30:03.057Z,1022.88
2022-10-17T11:35:02.680Z,1022.98
2022-10-17T11:40:03.357Z,1022.81
2022-10-17T11:45:03.162Z,1022.81
2022-10-17T11:55:04.111Z,1022.84
2022-10-17T12:00:02.693Z,1022.82
2022-10-17T12:05:03.393Z,1022.77
2022-10-17T12:10:02.773Z,1022.61
2022-10-17T12:15:02.425Z,1022.62
2022-10-17T12:20:03.136Z,1022.57
2022-10-17T12:25:02.786Z,1022.58
2022-10-17T12:30:02.500Z,1022.57
2022-10-17T12:35:02.270Z,1022.47
2022-10-17T12:40:02.987Z,1022.45
2022-10-17T12:45:03.022Z,1022.48
2022-10-17T12:50:02.471Z,1022.5
2022-10-17T12:55:15.186Z,1022.48
2022-10-17T13:00:02.924Z,1022.56
2022-10-17T13:05:02.320Z,1022.56
2022-10-17T13:10:03.144Z,1022.6
2022-10-17T13:15:02.831Z,1022.65
2022-10-17T13:20:02.535Z,1022.59
2022-10-17T13:25:03.136Z,1022.65
2022-10-17T13:35:02.747Z,1022.65
2022-10-17T13:50:02.710Z,1022.63
2022-10-17T13:55:03.572Z,1022.53
2022-10-17T14:00:02.375Z,1022.61
2022-10-17T14:05:18.043Z,1022.54
2022-10-17T14:10:02.328Z,1022.53
2022-10-17T14:15:11.734Z,1022.52
2022-10-17T14:21:43.634Z,1022.56
2022-10-17T14:30:02.874Z,1022.58
2022-10-17T14:35:18.118Z,1022.62
2022-10-17T14:40:02.844Z,1022.6
2022-10-17T14:45:02.397Z,1022.63
2022-10-17T14:50:03.101Z,1022.69
2022-10-17T14:55:04.134Z,1022.72
2022-10-17T15:00:02.443Z,1022.78
2022-10-17T15:05:02.621Z,1022.77
2022-10-17T15:10:03.125Z,1022.73
2022-10-17T15:15:02.800Z,1022.7
2022-10-17T15:20:03.189Z,1022.71
2022-10-17T15:25:02.802Z,1022.65
2022-10-17T15:30:02.687Z,1022.62
2022-10-17T15:35:02.310Z,1022.69
2022-10-17T15:40:02.969Z,1022.8
2022-10-17T15:45:02.759Z,1022.77
2022-10-17T15:50:02.434Z,1022.74
2022-10-17T15:55:06.057Z,1022.68
2022-10-17T16:00:02.740Z,1022.67
2022-10-17T16:05:02.351Z,1022.66
2022-10-17T16:10:03.166Z,1022.77
2022-10-17T16:15:03.196Z,1022.73
2022-10-17T16:20:02.651Z,1022.66
2022-10-17T16:25:02.271Z,1022.68
2022-10-17T16:30:03.330Z,1022.66
2022-10-17T16:35:02.598Z,1022.66
2022-10-17T16:40:02.559Z,1022.7
2022-10-17T16:45:03.210Z,1022.77
2022-10-17T16:50:02.515Z,1022.85
2022-10-17T16:55:03.918Z,1022.82
2022-10-17T17:00:02.942Z,1022.81
2022-10-17T17:05:02.729Z,1022.85
2022-10-17T17:10:02.416Z,1022.9
2022-10-17T17:15:03.277Z,1022.9
2022-10-17T17:20:02.895Z,1022.91
2022-10-17T17:25:02.493Z,1022.88
2022-10-17T17:30:02.251Z,1022.97
2022-10-17T17:35:02.719Z,1023.01
2022-10-17T17:40:02.632Z,1023.04
2022-10-17T17:45:02.308Z,1022.96
2022-10-17T17:50:02.905Z,1023.04
2022-10-17T17:55:04.123Z,1023.11
2022-10-17T18:00:03.049Z,1023.21
2022-10-17T18:05:02.537Z,1023.32
2022-10-17T18:10:03.136Z,1023.27
2022-10-17T18:15:02.601Z,1023.33
2022-10-17T18:20:02.311Z,1023.33
2022-10-17T18:25:02.908Z,1023.28
2022-10-17T18:30:02.577Z,1023.25
2022-10-17T18:35:02.352Z,1023.41
2022-10-17T18:40:02.869Z,1023.52
2022-10-17T18:45:02.511Z,1023.54
2022-10-17T18:50:02.334Z,1023.54
2022-10-17T18:55:04.144Z,1023.61
2022-10-17T19:00:02.835Z,1023.63
2022-10-17T19:05:02.491Z,1023.68
2022-10-17T19:10:02.214Z,1023.72
2022-10-17T19:15:02.991Z,1023.79
2022-10-17T19:20:02.696Z,1023.84
2022-10-17T19:25:02.294Z,1023.96
2022-10-17T19:30:03.066Z,1024.03
2022-10-17T19:35:02.651Z,1024.2
2022-10-17T19:40:02.321Z,1024.12
2022-10-17T19:45:03.391Z,1024.09
2022-10-17T19:55:03.675Z,1024.07
2022-10-17T20:00:02.290Z,1024.12
2022-10-17T20:05:18.364Z,1024.16
2022-10-17T20:10:02.224Z,1024.27
2022-10-17T20:15:03.022Z,1024.34
2022-10-17T20:20:04.848Z,1024.46
2022-10-17T20:25:02.572Z,1024.41
2022-10-17T20:30:03.237Z,1024.33
2022-10-17T20:35:02.938Z,1024.34
2022-10-17T20:40:29.846Z,1024.28
2022-10-17T20:45:02.452Z,1024.45
2022-10-17T20:50:03.102Z,1024.46
2022-10-17T20:55:04.348Z,1024.57
2022-10-17T21:00:02.357Z,1024.63
2022-10-17T21:05:03.023Z,1024.66
2022-10-17T21:10:12.293Z,1024.74
2022-10-17T21:15:02.332Z,1024.75
2022-10-17T21:20:03.080Z,1024.75
2022-10-17T21:25:02.701Z,1024.82
2022-10-17T21:30:02.679Z,1024.74
2022-10-17T21:35:02.261Z,1024.72
2022-10-17T21:40:03.055Z,1024.7
2022-10-17T21:45:02.880Z,1024.85
2022-10-17T21:50:02.382Z,1024.9
2022-10-17T21:55:04.469Z,1024.93
2022-10-17T22:00:02.495Z,1025.01
2022-10-17T22:05:03.535Z,1025.05
2022-10-17T22:10:02.800Z,1025.07
2022-10-17T22:15:02.495Z,1025.07
2022-10-17T22:20:03.129Z,1025.06
2022-10-17T22:25:02.765Z,1025.1
2022-10-17T22:30:02.401Z,1025.17
2022-10-17T22:35:03.185Z,1025.12
2022-10-17T22:40:02.820Z,1025.16
2022-10-17T22:45:02.499Z,1025.27
2022-10-17T22:50:03.107Z,1025.32
2022-10-17T22:55:04.081Z,1025.41
2022-10-17T23:00:02.375Z,1025.39
2022-10-17T23:05:03.027Z,1025.47
2022-10-17T23:10:02.672Z,1025.39
2022-10-17T23:15:02.337Z,1025.35
2022-10-17T23:20:02.994Z,1025.44
2022-10-17T23:25:02.623Z,1025.55
2022-10-17T23:30:02.282Z,1025.41
2022-10-17T23:35:02.925Z,1025.53
2022-10-17T23:40:02.578Z,1025.51
2022-10-17T23:45:03.241Z,1025.53
2022-10-17T23:50:02.888Z,1025.44
2022-10-17T23:55:03.715Z,1025.52
